Nearby METAR Reports

 

KAVP - Avoca/Wilkes B., Pennsylvania, USA
Distance from station: NE 13mi, 20km
Updated: Sun, 26-Sep-2021 5:54am PDT
Clear
Clear
 Wind from W
Wind: W 7 mph , 11 km/h
Temperature: 59°F , 15°C
Dew Point: 52°F , 11°C
Humidity: 77%
Barometer: 29.97 inHg , 1014.9 hPa
Clouds: Clear
Visibility: 10 miles , 16 km
2021/09/26 12:54 KAVP 261254Z 28006KT 10SM CLR 15/11 A2997 RMK AO2 SLP146 T01500106
KMPO - Mt. Pocono, Pennsylvania, USA
Distance from station: ESE 28mi, 45km
Updated: Sun, 26-Sep-2021 5:53am PDT
Clear
Clear
 Wind from WNW
Wind: WNW 13 mph , 20 km/h, Gust: 22 mph , 35 km/h
Temperature: 54°F , 12°C
Dew Point: 46°F , 8°C
Humidity: 77%
Barometer: 29.95 inHg , 1014.2 hPa
Clouds: Clear
Visibility: 10 miles , 16 km
2021/09/26 12:53 KMPO 261253Z AUTO 30011G19KT 10SM CLR 12/08 A2995 RMK AO2 SLP145 T01170083 TSNO
 
KABE - Allentown, Pennsylvania, USA
Distance from station: SSE 46mi, 74km
Updated: Sun, 26-Sep-2021 5:51am PDT
Clear
Clear
 Wind from WNW
Wind: WNW 6 mph , 9 km/h
Temperature: 59°F , 15°C
Dew Point: 52°F , 11°C
Humidity: 77%
Barometer: 29.97 inHg , 1014.9 hPa
Clouds: Clear
Visibility: 10 miles , 16 km
2021/09/26 12:51 KABE 261251Z 30005KT 10SM CLR 15/11 A2997 RMK AO2 SLP146 T01500106
KXLL - Allentown Queen, Pennsylvania, USA
Distance from station: SSE 50mi, 81km
Updated: Sun, 26-Sep-2021 6:35am PDT
Clear
Clear
 Wind from WNW
Wind: WNW 7 mph , 11 km/h
Temperature: 61°F , 16°C
Dew Point: 50°F , 10°C
Humidity: 68%
Barometer: 29.99 inHg , 1015.6 hPa
Clouds: Clear
Visibility: 10 miles , 16 km
2021/09/26 13:35 KXLL 261335Z AUTO 30006KT 10SM CLR 16/10 A2999 RMK AO2
 
KIPT - Williamsport, Pennsylvania, USA
Distance from station: W 52mi, 84km
Updated: Sun, 26-Sep-2021 5:54am PDT
Clear
Clear
 Wind from W
Wind: W 9 mph , 15 km/h
Temperature: 55°F , 13°C
Dew Point: 48°F , 9°C
Humidity: 77%
Barometer: 29.98 inHg , 1015.2 hPa
Clouds: Clear
Visibility: 10 miles , 16 km
2021/09/26 12:54 KIPT 261254Z 28008KT 10SM CLR 13/09 A2998 RMK AO2 SLP153 T01280094
KSEG - Selinsgrove, Pennsylvania, USA
Distance from station: WSW 57mi, 92km
Updated: Sun, 26-Sep-2021 5:53am PDT
Clear
Clear
 Wind from calm
Wind: Calm
Temperature: 55°F , 13°C
Dew Point: 52°F , 11°C
Humidity: 88%
Barometer: 30.01 inHg , 1016.3 hPa
Clouds: Clear
Visibility: 10 miles , 16 km
2021/09/26 12:53 KSEG 261253Z AUTO 00000KT 10SM CLR 13/11 A3001 RMK AO2 SLP161 T01280111 TSNO
 
KRDG - Reading, Pennsylvania, USA
Distance from station: S 59mi, 95km
Updated: Sun, 26-Sep-2021 5:54am PDT
Clear
Clear
 Wind from WNW
Wind: WNW 8 mph , 13 km/h
Temperature: 61°F , 16°C
Dew Point: 52°F , 11°C
Humidity: 72%
Barometer: 29.98 inHg , 1015.2 hPa
Clouds: Clear
Visibility: 10 miles , 16 km
2021/09/26 12:54 KRDG 261254Z 30007KT 10SM CLR 16/11 A2998 RMK AO2 SLP156 T01610106 $
KUKT - Quakertown Arp, Pennsylvania, USA
Distance from station: SSE 61mi, 98km
Updated: Sun, 26-Sep-2021 6:35am PDT
Clear
Clear
 Wind from WNW
Wind: WNW 8 mph , 13 km/h
Temperature: 61°F , 16°C
Dew Point: 50°F , 10°C
Humidity: 68%
Barometer: 29.98 inHg , 1015.2 hPa
Clouds: Clear
Visibility: 10 miles , 16 km
2021/09/26 13:35 KUKT 261335Z AUTO 29007KT 10SM CLR 16/10 A2998 RMK A01
 
K12N - Andover, New Jersey, USA
Distance from station: ESE 63mi, 101km
Updated: Sun, 26-Sep-2021 5:54am PDT

 Wind from varies
Wind: varies 5 mph , 7 km/h
Temperature: 61°F , 16°C
Dew Point: 52°F , 11°C
Humidity: 72%
Barometer: 29.95 inHg , 1014.2 hPa
2021/09/26 12:54 K12N 261254Z AUTO VRB04KT 16/11 A2995 RMK AO1 SLP138 T01610111
KMUI - Muir Aaf/Indiant, Pennsylvania, USA
Distance from station: SSW 65mi, 105km
Updated: Sun, 26-Sep-2021 4:56am PDT
NOT Current
Clear
Clear
 Wind from WSW
Wind: WSW 3 mph , 6 km/h
Temperature: 57°F , 14°C
Dew Point: 45°F , 7°C
Humidity: 63%
Barometer: 29.99 inHg , 1015.6 hPa
Clouds: Clear
Visibility: 10 miles , 16 km
2021/09/26 11:56 KMUI 261156Z AUTO 25003KT 10SM CLR 14/07 A2999 RMK AO2 SLP158 T01410072 10171 20128 52015
 
KFWN - Sussex, New Jersey, USA
Distance from station: E 66mi, 107km
Updated: Sun, 26-Sep-2021 5:53am PDT
Clear
Clear
 Wind from varies
Wind: varies 3 mph , 6 km/h
Temperature: 63°F , 17°C
Dew Point: 52°F , 11°C
Humidity: 68%
Barometer: 29.95 inHg , 1014.2 hPa
Clouds: Clear
Visibility: 10 miles , 16 km
2021/09/26 12:53 KFWN 261253Z AUTO VRB03KT 10SM CLR 17/11 A2995 RMK AO2 SLP140 T01670111 TSNO
KMSV - Monticello, New York, USA
Distance from station: ENE 67mi, 108km
Updated: Sun, 26-Sep-2021 5:56am PDT
Clear
Clear
 Wind from NW
Wind: NW 10 mph , 17 km/h
Temperature: 55°F , 13°C
Dew Point: 48°F , 9°C
Humidity: 77%
Barometer: 29.94 inHg , 1013.9 hPa
Clouds: Clear
Visibility: 10 miles , 16 km
2021/09/26 12:56 KMSV 261256Z AUTO 31009KT 10SM CLR 13/09 A2994 RMK AO2 SLP137 T01330094 TSNO
 
KBGM - Binghamton, New York, USA
Distance from station: N 69mi, 111km
Updated: Sun, 26-Sep-2021 6:03am PDT
Few Clouds
Few Clouds
 Wind from WSW
Wind: WSW 7 mph , 11 km/h
Temperature: 52°F , 11°C
Dew Point: 50°F , 10°C
Humidity: 94%
Barometer: 29.95 inHg , 1014.2 hPa
Clouds: Few Clouds
Visibility: 10 miles , 16 km
Cloud details: Few Clouds 500 ft
2021/09/26 13:03 KBGM 261303Z 24006KT 10SM FEW005 11/10 A2995 RMK AO2 T01110100 $
KPTW - Pottstown, Pennsylvania, USA
Distance from station: SSE 71mi, 114km
Updated: Sun, 26-Sep-2021 5:54am PDT
Clear
Clear
 Wind from WNW
Wind: WNW 6 mph , 9 km/h
Temperature: 57°F , 14°C
Dew Point: 50°F , 10°C
Humidity: 77%
Barometer: 29.99 inHg , 1015.6 hPa
Clouds: Clear
Visibility: 10 miles , 16 km
2021/09/26 12:54 KPTW 261254Z AUTO 30005KT 10SM CLR 14/10 A2999 RMK AO2 SLP154 T01440100 TSNO
 
KDYL - Doylestown, Pennsylvania, USA
Distance from station: SE 74mi, 119km
Updated: Sun, 26-Sep-2021 5:54am PDT
Clear
Clear
 Wind from WNW
Wind: WNW 5 mph , 7 km/h
Temperature: 61°F , 16°C
Dew Point: 52°F , 11°C
Humidity: 72%
Barometer: 29.96 inHg , 1014.6 hPa
Clouds: Clear
Visibility: 10 miles , 16 km
2021/09/26 12:54 KDYL 261254Z AUTO 30004KT 10SM CLR 16/11 A2996 RMK AO2 SLP143 T01610106 TSNO
KSMQ - Somerville, New Jersey, USA
Distance from station: ESE 77mi, 124km
Updated: Sun, 26-Sep-2021 5:53am PDT
Clear
Clear
 Wind from varies
Wind: varies 5 mph , 7 km/h
Temperature: 63°F , 17°C
Dew Point: 54°F , 12°C
Humidity: 73%
Barometer: 29.92 inHg , 1013.2 hPa
Clouds: Clear
Visibility: 10 miles , 16 km
2021/09/26 12:53 KSMQ 261253Z AUTO VRB04KT 10SM CLR 17/12 A2992 RMK AO2 SLP132 T01720122 TSNO
 
KLNS - Lancaster, Pennsylvania, USA
Distance from station: SSW 79mi, 127km
Updated: Sun, 26-Sep-2021 5:53am PDT
Clear
Clear
 Wind from W
Wind: W 7 mph , 11 km/h
Temperature: 61°F , 16°C
Dew Point: 46°F , 8°C
Humidity: 59%
Barometer: 30.00 inHg , 1015.9 hPa
Clouds: Clear
Visibility: 10 miles , 16 km
2021/09/26 12:53 KLNS 261253Z 28006KT 10SM CLR 16/08 A3000 RMK AO2 SLP159 T01560083
KELM - Elmira, New York, USA
Distance from station: NW 82mi, 132km
Updated: Sun, 26-Sep-2021 5:53am PDT
Clear
Clear
 Wind from SW
Wind: SW 8 mph , 13 km/h
Temperature: 55°F , 13°C
Dew Point: 50°F , 10°C
Humidity: 82%
Barometer: 29.96 inHg , 1014.6 hPa
Clouds: Clear
Visibility: 10 miles , 16 km
2021/09/26 12:53 KELM 261253Z 22007KT 10SM CLR 13/10 A2996 RMK AO2 SLP147 T01280100
 
KLOM - Philly Wings F, Pennsylvania, USA
Distance from station: SSE 82mi, 132km
Updated: Sat, 25-Sep-2021 1:30pm PDT
NOT Current
Clear
Clear
 Wind from WNW
Wind: WNW 5 mph , 7 km/h
Temperature: 73°F , 23°C
Dew Point: 52°F , 11°C
Humidity: 47%
Barometer: 29.95 inHg , 1014.2 hPa
Clouds: Clear
Visibility: 10 miles , 16 km
2021/09/25 20:30 KLOM 252030Z AUTO 29004KT 10SM CLR 23/11 A2995 RMK AO2 T02320110
KMMU - Morristown Muni, New Jersey, USA
Distance from station: ESE 83mi, 134km
Updated: Sun, 26-Sep-2021 6:45am PDT
Clear
Clear
 Wind from NNW
Wind: NNW 9 mph , 15 km/h, Gust: 16 mph , 26 km/h
Temperature: 64°F , 18°C
Dew Point: 50°F , 10°C
Humidity: 60%
Barometer: 29.94 inHg , 1013.9 hPa
Clouds: Clear
Visibility: 10 miles , 16 km
2021/09/26 13:45 KMMU 261345Z 34008G14KT 10SM SKC 18/10 A2994

Metar display script from Saratoga-Weather.org